Terminal Aerodrome Forecast
Issued by NWS Shreveport, LA

Home | Current Version | Previous Version | Text Only | Print | Product List | Glossary On
Versions: 1 2 3 4 5 6 7 8 9 10 11 12 13 14 15 16 17 18
000
FTUS44 KSHV 211120
TAFMLU
TAF
KMLU 211120Z 2112/2212 VRB03KT P6SM SKC
     FM211700 11005KT P6SM SCT080
     FM220000 18004KT P6SM SKC
      TEMPO 2208/2212 2SM BR=

USA.gov is the U.S. government's official web portal to all federal, state and local government web resources and services.